sensor_id;sensor_type;location;lat;lon;timestamp;pressure;altitude;pressure_sealevel;temperature;humidity
19150;BME280;9707;49.158;8.632;2024-02-21T00:01:25;101445.25;;;20.05;34.14
19150;BME280;9707;49.158;8.632;2024-02-21T00:03:50;101448.84;;;20.05;33.82
19150;BME280;9707;49.158;8.632;2024-02-21T00:06:16;101430.88;;;20.04;34.15
19150;BME280;9707;49.158;8.632;2024-02-21T00:08:41;101433.66;;;20.03;33.81
19150;BME280;9707;49.158;8.632;2024-02-21T00:11:06;101438.09;;;20.04;33.99
19150;BME280;9707;49.158;8.632;2024-02-21T00:13:31;101424.56;;;20.04;34.00
19150;BME280;9707;49.158;8.632;2024-02-21T00:15:57;101430.97;;;20.03;33.95
19150;BME280;9707;49.158;8.632;2024-02-21T00:18:22;101415.69;;;20.02;33.80
19150;BME280;9707;49.158;8.632;2024-02-21T00:20:47;101411.06;;;20.04;33.96
19150;BME280;9707;49.158;8.632;2024-02-21T00:23:13;101417.44;;;20.03;33.94
19150;BME280;9707;49.158;8.632;2024-02-21T00:25:38;101417.44;;;20.03;33.77
19150;BME280;9707;49.158;8.632;2024-02-21T00:28:04;101402.19;;;20.02;33.90
19150;BME280;9707;49.158;8.632;2024-02-21T00:30:31;101404.00;;;20.01;33.82
19150;BME280;9707;49.158;8.632;2024-02-21T00:32:56;101405.84;;;20.01;33.88
19150;BME280;9707;49.158;8.632;2024-02-21T00:35:21;101395.97;;;20.00;33.92
19150;BME280;9707;49.158;8.632;2024-02-21T00:37:46;101395.03;;;20.01;33.94
19150;BME280;9707;49.158;8.632;2024-02-21T00:40:12;101395.03;;;20.01;34.15
19150;BME280;9707;49.158;8.632;2024-02-21T00:42:37;101390.47;;;20.01;33.95
19150;BME280;9707;49.158;8.632;2024-02-21T00:45:03;101382.44;;;20.00;34.23
19150;BME280;9707;49.158;8.632;2024-02-21T00:47:28;101380.63;;;20.00;34.06
19150;BME280;9707;49.158;8.632;2024-02-21T00:49:53;101380.63;;;20.00;34.07
19150;BME280;9707;49.158;8.632;2024-02-21T00:52:19;101373.47;;;19.99;33.96
19150;BME280;9707;49.158;8.632;2024-02-21T00:54:44;101379.75;;;20.00;34.24
19150;BME280;9707;49.158;8.632;2024-02-21T00:57:09;101372.50;;;20.00;34.65
19150;BME280;9707;49.158;8.632;2024-02-21T00:59:34;101368.91;;;20.00;34.16
19150;BME280;9707;49.158;8.632;2024-02-21T01:02:00;101361.78;;;19.99;33.99
19150;BME280;9707;49.158;8.632;2024-02-21T01:04:25;101358.09;;;20.00;34.40
19150;BME280;9707;49.158;8.632;2024-02-21T01:06:50;101360.81;;;20.00;34.42
19150;BME280;9707;49.158;8.632;2024-02-21T01:09:16;101350.97;;;19.99;34.36
19150;BME280;9707;49.158;8.632;2024-02-21T01:11:41;101345.56;;;19.99;34.34
19150;BME280;9707;49.158;8.632;2024-02-21T01:14:06;101341.88;;;20.00;34.74
19150;BME280;9707;49.158;8.632;2024-02-21T01:16:31;101336.38;;;20.01;34.66
19150;BME280;9707;49.158;8.632;2024-02-21T01:18:57;101330.97;;;20.01;35.07
19150;BME280;9707;49.158;8.632;2024-02-21T01:21:22;101327.41;;;20.01;34.86
19150;BME280;9707;49.158;8.632;2024-02-21T01:23:47;101326.44;;;20.02;34.83
19150;BME280;9707;49.158;8.632;2024-02-21T01:26:13;101318.31;;;20.02;35.13
19150;BME280;9707;49.158;8.632;2024-02-21T01:28:41;101312.81;;;20.03;35.19
19150;BME280;9707;49.158;8.632;2024-02-21T01:31:06;101304.59;;;20.05;35.14
19150;BME280;9707;49.158;8.632;2024-02-21T01:33:32;101299.31;;;20.03;34.91
19150;BME280;9707;49.158;8.632;2024-02-21T01:36:03;101303.84;;;20.03;34.90
19150;BME280;9707;49.158;8.632;2024-02-21T01:38:29;101311.94;;;20.03;34.85
19150;BME280;9707;49.158;8.632;2024-02-21T01:40:55;101309.25;;;20.03;35.09
19150;BME280;9707;49.158;8.632;2024-02-21T01:43:21;101306.53;;;20.03;35.23
19150;BME280;9707;49.158;8.632;2024-02-21T01:45:49;101291.28;;;20.02;35.02
19150;BME280;9707;49.158;8.632;2024-02-21T01:48:16;101299.41;;;20.02;34.82
19150;BME280;9707;49.158;8.632;2024-02-21T01:50:42;101295.81;;;20.01;34.96
19150;BME280;9707;49.158;8.632;2024-02-21T01:53:07;101298.59;;;20.00;34.99
19150;BME280;9707;49.158;8.632;2024-02-21T01:55:33;101296.88;;;19.99;34.75
19150;BME280;9707;49.158;8.632;2024-02-21T01:57:59;101303.16;;;19.99;34.76
19150;BME280;9707;49.158;8.632;2024-02-21T02:00:24;101300.53;;;19.98;35.16
19150;BME280;9707;49.158;8.632;2024-02-21T02:02:50;101305.97;;;19.98;35.03
19150;BME280;9707;49.158;8.632;2024-02-21T02:05:16;101304.22;;;19.97;34.97
19150;BME280;9707;49.158;8.632;2024-02-21T02:07:42;101301.53;;;19.97;35.22
19150;BME280;9707;49.158;8.632;2024-02-21T02:10:08;101306.94;;;19.97;35.07
19150;BME280;9707;49.158;8.632;2024-02-21T02:12:35;101297.94;;;19.96;35.16
19150;BME280;9707;49.158;8.632;2024-02-21T02:15:01;101296.09;;;19.97;35.09
19150;BME280;9707;49.158;8.632;2024-02-21T02:17:30;101293.41;;;19.97;35.03
19150;BME280;9707;49.158;8.632;2024-02-21T02:19:55;101287.13;;;19.96;35.15
19150;BME280;9707;49.158;8.632;2024-02-21T02:22:22;101283.56;;;19.96;35.17
19150;BME280;9707;49.158;8.632;2024-02-21T02:24:49;101285.28;;;19.97;35.22
19150;BME280;9707;49.158;8.632;2024-02-21T02:27:15;101278.16;;;19.96;34.92
19150;BME280;9707;49.158;8.632;2024-02-21T02:29:40;101270.03;;;19.96;35.16
19150;BME280;9707;49.158;8.632;2024-02-21T02:32:05;101266.38;;;19.97;35.31
19150;BME280;9707;49.158;8.632;2024-02-21T02:34:31;101274.47;;;19.97;34.93
19150;BME280;9707;49.158;8.632;2024-02-21T02:36:56;101253.81;;;19.96;35.10
19150;BME280;9707;49.158;8.632;2024-02-21T02:39:21;101248.41;;;19.96;35.31
19150;BME280;9707;49.158;8.632;2024-02-21T02:41:46;101248.41;;;19.96;35.21
19150;BME280;9707;49.158;8.632;2024-02-21T02:44:12;101246.53;;;19.96;35.22
19150;BME280;9707;49.158;8.632;2024-02-21T02:46:40;101237.59;;;19.96;35.03
19150;BME280;9707;49.158;8.632;2024-02-21T02:49:05;101237.47;;;19.97;34.75
19150;BME280;9707;49.158;8.632;2024-02-21T02:51:30;101231.19;;;19.97;34.97
19150;BME280;9707;49.158;8.632;2024-02-21T02:53:56;101228.50;;;19.97;34.95
19150;BME280;9707;49.158;8.632;2024-02-21T02:56:22;101215.06;;;19.95;34.93
19150;BME280;9707;49.158;8.632;2024-02-21T02:58:47;101208.78;;;19.95;34.92
19150;BME280;9707;49.158;8.632;2024-02-21T03:01:12;101213.25;;;19.96;34.89
19150;BME280;9707;49.158;8.632;2024-02-21T03:03:38;101214.19;;;19.95;34.46
19150;BME280;9707;49.158;8.632;2024-02-21T03:06:04;101207.03;;;19.94;34.90
19150;BME280;9707;49.158;8.632;2024-02-21T03:08:29;101205.13;;;19.96;34.72
19150;BME280;9707;49.158;8.632;2024-02-21T03:10:54;101203.38;;;19.95;34.95
19150;BME280;9707;49.158;8.632;2024-02-21T03:13:20;101195.16;;;19.96;34.93
19150;BME280;9707;49.158;8.632;2024-02-21T03:15:45;101194.31;;;19.96;35.02
19150;BME280;9707;49.158;8.632;2024-02-21T03:18:10;101188.91;;;19.96;35.26
19150;BME280;9707;49.158;8.632;2024-02-21T03:20:36;101181.56;;;19.98;35.55
19150;BME280;9707;49.158;8.632;2024-02-21T03:23:01;101189.56;;;19.99;34.90
19150;BME280;9707;49.158;8.632;2024-02-21T03:25:26;101179.59;;;20.00;35.02
19150;BME280;9707;49.158;8.632;2024-02-21T03:27:51;101187.84;;;19.98;34.95
19150;BME280;9707;49.158;8.632;2024-02-21T03:30:16;101179.81;;;19.97;34.51
19150;BME280;9707;49.158;8.632;2024-02-21T03:32:42;101183.50;;;19.96;34.38
19150;BME280;9707;49.158;8.632;2024-02-21T03:35:07;101178.09;;;19.96;34.58
19150;BME280;9707;49.158;8.632;2024-02-21T03:37:32;101178.09;;;19.96;34.90
19150;BME280;9707;49.158;8.632;2024-02-21T03:39:58;101169.97;;;19.96;34.85
19150;BME280;9707;49.158;8.632;2024-02-21T03:42:23;101162.72;;;19.96;34.91
19150;BME280;9707;49.158;8.632;2024-02-21T03:44:48;101156.47;;;19.96;35.00
19150;BME280;9707;49.158;8.632;2024-02-21T03:47:13;101149.09;;;19.98;35.01
19150;BME280;9707;49.158;8.632;2024-02-21T03:49:39;101152.56;;;20.00;35.68
19150;BME280;9707;49.158;8.632;2024-02-21T03:52:04;101150.63;;;20.02;35.00
19150;BME280;9707;49.158;8.632;2024-02-21T03:54:29;101153.53;;;19.99;34.88
19150;BME280;9707;49.158;8.632;2024-02-21T03:56:55;101153.53;;;19.99;34.88
19150;BME280;9707;49.158;8.632;2024-02-21T03:59:20;101152.78;;;19.97;35.00
19150;BME280;9707;49.158;8.632;2024-02-21T04:01:45;101146.41;;;19.98;34.99
19150;BME280;9707;49.158;8.632;2024-02-21T04:04:11;101148.34;;;19.96;34.91
19150;BME280;9707;49.158;8.632;2024-02-21T04:06:36;101163.59;;;19.97;35.13
19150;BME280;9707;49.158;8.632;2024-02-21T04:09:02;101166.38;;;19.95;34.92
19150;BME280;9707;49.158;8.632;2024-02-21T04:11:27;101171.81;;;19.95;35.28
19150;BME280;9707;49.158;8.632;2024-02-21T04:13:52;101167.16;;;19.97;35.10
19150;BME280;9707;49.158;8.632;2024-02-21T04:16:17;101177.13;;;19.97;34.95
19150;BME280;9707;49.158;8.632;2024-02-21T04:18:43;101181.72;;;19.95;34.93
19150;BME280;9707;49.158;8.632;2024-02-21T04:21:09;101191.69;;;19.94;34.29
19150;BME280;9707;49.158;8.632;2024-02-21T04:23:34;101187.38;;;19.92;34.35
19150;BME280;9707;49.158;8.632;2024-02-21T04:26:00;101177.53;;;19.91;34.78
19150;BME280;9707;49.158;8.632;2024-02-21T04:28:25;101173.94;;;19.90;34.58
19150;BME280;9707;49.158;8.632;2024-02-21T04:30:50;101176.72;;;19.89;34.65
19150;BME280;9707;49.158;8.632;2024-02-21T04:33:15;101171.31;;;19.89;34.59
19150;BME280;9707;49.158;8.632;2024-02-21T04:35:41;101168.53;;;19.90;34.48
19150;BME280;9707;49.158;8.632;2024-02-21T04:38:06;101172.19;;;19.89;34.58
19150;BME280;9707;49.158;8.632;2024-02-21T04:40:31;101166.78;;;19.89;34.78
19150;BME280;9707;49.158;8.632;2024-02-21T04:42:57;101171.13;;;19.92;34.98
19150;BME280;9707;49.158;8.632;2024-02-21T04:45:23;101169.19;;;19.94;35.07
19150;BME280;9707;49.158;8.632;2024-02-21T04:47:48;101166.38;;;19.95;34.77
19150;BME280;9707;49.158;8.632;2024-02-21T04:50:13;101142.94;;;19.96;34.68
19150;BME280;9707;49.158;8.632;2024-02-21T04:52:39;101137.63;;;19.94;34.96
19150;BME280;9707;49.158;8.632;2024-02-21T04:55:04;101140.22;;;19.96;34.79
19150;BME280;9707;49.158;8.632;2024-02-21T04:57:29;101130.25;;;19.96;34.94
19150;BME280;9707;49.158;8.632;2024-02-21T04:59:55;101129.41;;;19.96;34.74
19150;BME280;9707;49.158;8.632;2024-02-21T05:02:20;101124.94;;;19.95;35.11
19150;BME280;9707;49.158;8.632;2024-02-21T05:04:47;101122.06;;;19.98;34.98
19150;BME280;9707;49.158;8.632;2024-02-21T05:07:13;101117.63;;;19.97;34.78
19150;BME280;9707;49.158;8.632;2024-02-21T05:09:38;101096.97;;;19.96;34.64
19150;BME280;9707;49.158;8.632;2024-02-21T05:12:03;101097.06;;;19.94;34.45
19150;BME280;9707;49.158;8.632;2024-02-21T05:14:29;101091.66;;;19.94;34.65
19150;BME280;9707;49.158;8.632;2024-02-21T05:16:54;101092.63;;;19.93;34.22
19150;BME280;9707;49.158;8.632;2024-02-21T05:19:20;101090.88;;;19.92;34.19
19150;BME280;9707;49.158;8.632;2024-02-21T05:21:45;101082.88;;;19.91;33.97
19150;BME280;9707;49.158;8.632;2024-02-21T05:24:14;101090.19;;;19.89;34.14
19150;BME280;9707;49.158;8.632;2024-02-21T05:26:39;101093.13;;;19.86;33.90
19150;BME280;9707;49.158;8.632;2024-02-21T05:29:04;101094.94;;;19.85;34.04
19150;BME280;9707;49.158;8.632;2024-02-21T05:34:18;101086.09;;;19.83;34.40
19150;BME280;9707;49.158;8.632;2024-02-21T05:36:43;101087.16;;;19.81;34.15
19150;BME280;9707;49.158;8.632;2024-02-21T05:39:09;101092.56;;;19.81;33.99
19150;BME280;9707;49.158;8.632;2024-02-21T05:41:34;101091.69;;;19.80;34.16
19150;BME280;9707;49.158;8.632;2024-02-21T05:43:59;101084.44;;;19.81;34.02
19150;BME280;9707;49.158;8.632;2024-02-21T05:46:25;101085.38;;;19.80;34.30
19150;BME280;9707;49.158;8.632;2024-02-21T05:48:50;101080.13;;;19.78;34.15
19150;BME280;9707;49.158;8.632;2024-02-21T05:51:15;101080.97;;;19.79;34.41
19150;BME280;9707;49.158;8.632;2024-02-21T05:53:41;101091.78;;;19.79;34.30
19150;BME280;9707;49.158;8.632;2024-02-21T05:56:13;101068.41;;;19.78;34.26
19150;BME280;9707;49.158;8.632;2024-02-21T05:58:38;101063.97;;;19.77;34.05
19150;BME280;9707;49.158;8.632;2024-02-21T06:01:04;101070.38;;;19.76;34.16
19150;BME280;9707;49.158;8.632;2024-02-21T06:03:30;101080.22;;;19.77;33.63
19150;BME280;9707;49.158;8.632;2024-02-21T06:05:55;101069.59;;;19.74;33.21
19150;BME280;9707;49.158;8.632;2024-02-21T06:08:21;101073.34;;;19.71;33.51
19150;BME280;9707;49.158;8.632;2024-02-21T06:10:46;101081.59;;;19.70;33.27
19150;BME280;9707;49.158;8.632;2024-02-21T06:13:13;101068.25;;;19.67;33.23
19150;BME280;9707;49.158;8.632;2024-02-21T06:15:38;101072.03;;;19.64;33.37
19150;BME280;9707;49.158;8.632;2024-02-21T06:18:04;101066.63;;;19.64;33.46
19150;BME280;9707;49.158;8.632;2024-02-21T06:20:29;101068.66;;;19.61;33.36
19150;BME280;9707;49.158;8.632;2024-02-21T06:22:54;101059.78;;;19.59;33.50
19150;BME280;9707;49.158;8.632;2024-02-21T06:25:19;101059.00;;;19.57;33.44
19150;BME280;9707;49.158;8.632;2024-02-21T06:27:45;101060.00;;;19.56;33.58
19150;BME280;9707;49.158;8.632;2024-02-21T06:30:10;101058.25;;;19.55;33.50
19150;BME280;9707;49.158;8.632;2024-02-21T06:32:36;101060.97;;;19.55;33.71
19150;BME280;9707;49.158;8.632;2024-02-21T06:35:01;101061.16;;;19.52;33.47
19150;BME280;9707;49.158;8.632;2024-02-21T06:37:29;101053.91;;;19.52;33.69
19150;BME280;9707;49.158;8.632;2024-02-21T06:39:55;101061.25;;;19.50;33.75
19150;BME280;9707;49.158;8.632;2024-02-21T06:42:20;101051.31;;;19.51;34.62
19150;BME280;9707;49.158;8.632;2024-02-21T06:44:46;101047.53;;;19.53;34.88
19150;BME280;9707;49.158;8.632;2024-02-21T06:47:11;101041.91;;;19.56;35.31
19150;BME280;9707;49.158;8.632;2024-02-21T06:49:37;101047.13;;;19.59;35.10
19150;BME280;9707;49.158;8.632;2024-02-21T06:52:04;101037.88;;;19.63;34.28
19150;BME280;9707;49.158;8.632;2024-02-21T06:54:30;101044.13;;;19.64;33.89
19150;BME280;9707;49.158;8.632;2024-02-21T06:56:56;101043.38;;;19.62;34.14
19150;BME280;9707;49.158;8.632;2024-02-21T06:59:21;101047.88;;;19.61;34.19
19150;BME280;9707;49.158;8.632;2024-02-21T07:01:53;101048.97;;;19.59;34.07
19150;BME280;9707;49.158;8.632;2024-02-21T07:04:18;101049.94;;;19.58;33.90
19150;BME280;9707;49.158;8.632;2024-02-21T07:06:43;101044.63;;;19.56;33.96
19150;BME280;9707;49.158;8.632;2024-02-21T07:09:09;101046.66;;;19.53;33.67
19150;BME280;9707;49.158;8.632;2024-02-21T07:11:34;101053.03;;;19.52;33.33
19150;BME280;9707;49.158;8.632;2024-02-21T07:13:59;101043.31;;;19.49;33.38
19150;BME280;9707;49.158;8.632;2024-02-21T07:16:24;101053.34;;;19.47;33.29
19150;BME280;9707;49.158;8.632;2024-02-21T07:18:51;101057.13;;;19.45;33.40
19150;BME280;9707;49.158;8.632;2024-02-21T07:21:16;101052.78;;;19.42;33.40
19150;BME280;9707;49.158;8.632;2024-02-21T07:23:42;101059.25;;;19.40;33.38
19150;BME280;9707;49.158;8.632;2024-02-21T07:26:07;101042.25;;;19.38;33.55
19150;BME280;9707;49.158;8.632;2024-02-21T07:28:33;101037.81;;;19.37;33.56
19150;BME280;9707;49.158;8.632;2024-02-21T07:30:59;101038.78;;;19.36;33.65
19150;BME280;9707;49.158;8.632;2024-02-21T07:33:24;101034.38;;;19.35;33.67
19150;BME280;9707;49.158;8.632;2024-02-21T07:35:50;101038.78;;;19.36;33.97
19150;BME280;9707;49.158;8.632;2024-02-21T07:38:15;101030.69;;;19.36;33.99
19150;BME280;9707;49.158;8.632;2024-02-21T07:40:44;101038.69;;;19.37;33.82
19150;BME280;9707;49.158;8.632;2024-02-21T07:43:09;101036.00;;;19.37;34.04
19150;BME280;9707;49.158;8.632;2024-02-21T07:45:35;101044.94;;;19.38;33.92
19150;BME280;9707;49.158;8.632;2024-02-21T07:48:00;101049.38;;;19.39;33.74
19150;BME280;9707;49.158;8.632;2024-02-21T07:50:25;101055.56;;;19.41;34.09
19150;BME280;9707;49.158;8.632;2024-02-21T07:52:50;101046.50;;;19.42;33.66
19150;BME280;9707;49.158;8.632;2024-02-21T07:55:16;101045.63;;;19.41;33.72
19150;BME280;9707;49.158;8.632;2024-02-21T07:57:41;101043.69;;;19.43;34.21
19150;BME280;9707;49.158;8.632;2024-02-21T08:00:07;101034.63;;;19.44;34.23
19150;BME280;9707;49.158;8.632;2024-02-21T08:02:35;101034.53;;;19.46;34.07
19150;BME280;9707;49.158;8.632;2024-02-21T08:05:00;101034.31;;;19.49;34.96
19150;BME280;9707;49.158;8.632;2024-02-21T08:07:25;101033.16;;;19.53;34.94
19150;BME280;9707;49.158;8.632;2024-02-21T08:09:54;101023.88;;;19.57;34.90
19150;BME280;9707;49.158;8.632;2024-02-21T08:12:19;101029.94;;;19.60;35.05
19150;BME280;9707;49.158;8.632;2024-02-21T08:14:44;101020.78;;;19.63;34.68
19150;BME280;9707;49.158;8.632;2024-02-21T08:17:09;101018.72;;;19.66;34.79
19150;BME280;9707;49.158;8.632;2024-02-21T08:19:35;101017.66;;;19.69;34.90
19150;BME280;9707;49.158;8.632;2024-02-21T08:22:00;101013.88;;;19.71;34.45
19150;BME280;9707;49.158;8.632;2024-02-21T08:24:25;101015.50;;;19.74;34.92
19150;BME280;9707;49.158;8.632;2024-02-21T08:26:50;101009.03;;;19.76;35.54
19150;BME280;9707;49.158;8.632;2024-02-21T08:29:16;100997.16;;;19.79;35.09
19150;BME280;9707;49.158;8.632;2024-02-21T08:31:41;100999.66;;;19.82;34.92
19150;BME280;9707;49.158;8.632;2024-02-21T08:34:06;101002.16;;;19.85;34.64
19150;BME280;9707;49.158;8.632;2024-02-21T08:36:36;100997.63;;;19.85;34.31
19150;BME280;9707;49.158;8.632;2024-02-21T08:39:02;100986.69;;;19.87;34.24
19150;BME280;9707;49.158;8.632;2024-02-21T08:41:30;100992.88;;;19.89;34.27
19150;BME280;9707;49.158;8.632;2024-02-21T08:43:55;100986.47;;;19.90;34.30
19150;BME280;9707;49.158;8.632;2024-02-21T08:46:21;100976.44;;;19.92;34.47
19150;BME280;9707;49.158;8.632;2024-02-21T08:48:46;100976.34;;;19.93;34.26
19150;BME280;9707;49.158;8.632;2024-02-21T08:51:14;100984.47;;;19.93;33.76
19150;BME280;9707;49.158;8.632;2024-02-21T08:53:40;100979.91;;;19.94;33.85
19150;BME280;9707;49.158;8.632;2024-02-21T08:56:06;100979.91;;;19.94;33.68
19150;BME280;9707;49.158;8.632;2024-02-21T08:58:32;100979.06;;;19.93;33.23
19150;BME280;9707;49.158;8.632;2024-02-21T09:00:58;100976.44;;;19.92;33.39
19150;BME280;9707;49.158;8.632;2024-02-21T09:03:23;100971.13;;;19.90;33.53
19150;BME280;9707;49.158;8.632;2024-02-21T09:05:49;100976.44;;;19.92;33.46
19150;BME280;9707;49.158;8.632;2024-02-21T09:08:14;100972.00;;;19.91;33.21
19150;BME280;9707;49.158;8.632;2024-02-21T09:10:40;100973.84;;;19.90;33.45
19150;BME280;9707;49.158;8.632;2024-02-21T09:13:05;100965.63;;;19.92;33.56
19150;BME280;9707;49.158;8.632;2024-02-21T09:15:32;100970.06;;;19.93;33.75
19150;BME280;9707;49.158;8.632;2024-02-21T09:17:57;100966.38;;;19.94;33.35
19150;BME280;9707;49.158;8.632;2024-02-21T09:20:23;100958.25;;;19.94;33.40
19150;BME280;9707;49.158;8.632;2024-02-21T09:22:48;100958.16;;;19.95;33.23
19150;BME280;9707;49.158;8.632;2024-02-21T09:25:13;100950.16;;;19.94;33.16
19150;BME280;9707;49.158;8.632;2024-02-21T09:27:39;100943.78;;;19.95;33.26
19150;BME280;9707;49.158;8.632;2024-02-21T09:30:05;100943.78;;;19.95;33.13
19150;BME280;9707;49.158;8.632;2024-02-21T09:32:31;100938.25;;;19.96;33.20
19150;BME280;9707;49.158;8.632;2024-02-21T09:34:57;100929.31;;;19.96;33.56
19150;BME280;9707;49.158;8.632;2024-02-21T09:37:22;100932.75;;;19.98;33.58
19150;BME280;9707;49.158;8.632;2024-02-21T09:39:48;100941.63;;;20.00;33.74
19150;BME280;9707;49.158;8.632;2024-02-21T09:42:14;100937.97;;;20.01;33.23
19150;BME280;9707;49.158;8.632;2024-02-21T09:44:45;100935.03;;;20.04;33.93
19150;BME280;9707;49.158;8.632;2024-02-21T09:47:22;100924.91;;;20.07;34.04
19150;BME280;9707;49.158;8.632;2024-02-21T09:49:49;100930.00;;;20.12;34.39
19150;BME280;9707;49.158;8.632;2024-02-21T09:52:15;100918.94;;;20.15;33.85
19150;BME280;9707;49.158;8.632;2024-02-21T09:54:41;100913.34;;;20.18;33.77
19150;BME280;9707;49.158;8.632;2024-02-21T09:57:10;100912.25;;;20.20;33.34
19150;BME280;9707;49.158;8.632;2024-02-21T09:59:37;100908.69;;;20.20;32.55
19150;BME280;9707;49.158;8.632;2024-02-21T10:02:02;100905.97;;;20.20;32.15
19150;BME280;9707;49.158;8.632;2024-02-21T10:04:28;100898.84;;;20.19;32.74
19150;BME280;9707;49.158;8.632;2024-02-21T10:06:54;100898.72;;;20.20;32.71
19150;BME280;9707;49.158;8.632;2024-02-21T10:09:27;100896.03;;;20.20;32.46
19150;BME280;9707;49.158;8.632;2024-02-21T10:11:53;100883.47;;;20.19;32.38
19150;BME280;9707;49.158;8.632;2024-02-21T10:14:19;100884.31;;;20.20;32.05
19150;BME280;9707;49.158;8.632;2024-02-21T10:16:47;100882.59;;;20.19;32.61
19150;BME280;9707;49.158;8.632;2024-02-21T10:19:19;100877.97;;;20.21;32.29
19150;BME280;9707;49.158;8.632;2024-02-21T10:22:01;100876.13;;;20.21;31.93
19150;BME280;9707;49.158;8.632;2024-02-21T10:24:30;100869.84;;;20.21;32.21
19150;BME280;9707;49.158;8.632;2024-02-21T10:27:02;100872.44;;;20.22;32.22
19150;BME280;9707;49.158;8.632;2024-02-21T10:29:31;100865.94;;;20.25;32.10
19150;BME280;9707;49.158;8.632;2024-02-21T10:32:13;100866.81;;;20.25;31.58
19150;BME280;9707;49.158;8.632;2024-02-21T10:34:40;100865.94;;;20.25;32.04
19150;BME280;9707;49.158;8.632;2024-02-21T10:37:09;100856.88;;;20.26;31.62
19150;BME280;9707;49.158;8.632;2024-02-21T10:39:37;100842.38;;;20.27;31.50
19150;BME280;9707;49.158;8.632;2024-02-21T10:42:03;100852.31;;;20.26;31.17
19150;BME280;9707;49.158;8.632;2024-02-21T10:44:30;100849.69;;;20.25;31.53
19150;BME280;9707;49.158;8.632;2024-02-21T10:46:56;100846.16;;;20.24;31.77
19150;BME280;9707;49.158;8.632;2024-02-21T10:49:23;100842.38;;;20.27;31.98
19150;BME280;9707;49.158;8.632;2024-02-21T10:51:55;100833.25;;;20.28;31.48
19150;BME280;9707;49.158;8.632;2024-02-21T10:56:53;100834.78;;;20.32;31.88
19150;BME280;9707;49.158;8.632;2024-02-21T10:59:22;100825.69;;;20.33;31.52
19150;BME280;9707;49.158;8.632;2024-02-21T11:01:48;100823.72;;;20.35;31.64
19150;BME280;9707;49.158;8.632;2024-02-21T11:04:14;100817.34;;;20.36;31.33
19150;BME280;9707;49.158;8.632;2024-02-21T11:06:40;100815.50;;;20.36;31.29
19150;BME280;9707;49.158;8.632;2024-02-21T11:09:07;100809.00;;;20.39;30.79
19150;BME280;9707;49.158;8.632;2024-02-21T11:11:34;100802.84;;;20.37;30.87
19150;BME280;9707;49.158;8.632;2024-02-21T11:14:19;100797.44;;;20.37;30.95
19150;BME280;9707;49.158;8.632;2024-02-21T11:16:45;100797.44;;;20.37;30.81
19150;BME280;9707;49.158;8.632;2024-02-21T11:21:46;100781.94;;;20.39;31.84
19150;BME280;9707;49.158;8.632;2024-02-21T11:24:13;100788.00;;;20.42;31.88
19150;BME280;9707;49.158;8.632;2024-02-21T11:26:39;100790.38;;;20.47;32.03
19150;BME280;9707;49.158;8.632;2024-02-21T11:29:07;100777.38;;;20.52;31.65
19150;BME280;9707;49.158;8.632;2024-02-21T11:31:38;100766.41;;;20.53;31.62
19150;BME280;9707;49.158;8.632;2024-02-21T11:34:05;100763.50;;;20.56;31.66
19150;BME280;9707;49.158;8.632;2024-02-21T11:36:33;100762.41;;;20.59;31.21
19150;BME280;9707;49.158;8.632;2024-02-21T11:39:04;100754.19;;;20.60;31.10
19150;BME280;9707;49.158;8.632;2024-02-21T11:41:31;100745.94;;;20.62;31.48
19150;BME280;9707;49.158;8.632;2024-02-21T11:43:56;100737.69;;;20.63;30.69
19150;BME280;9707;49.158;8.632;2024-02-21T11:46:21;100739.56;;;20.63;31.13
19150;BME280;9707;49.158;8.632;2024-02-21T11:48:47;100737.56;;;20.65;30.72
19150;BME280;9707;49.158;8.632;2024-02-21T11:51:25;100730.34;;;20.65;30.81
19150;BME280;9707;49.158;8.632;2024-02-21T11:53:52;100710.41;;;20.66;30.77
19150;BME280;9707;49.158;8.632;2024-02-21T11:56:18;100707.59;;;20.68;30.62
19150;BME280;9707;49.158;8.632;2024-02-21T11:58:43;100703.16;;;20.67;29.98
19150;BME280;9707;49.158;8.632;2024-02-21T12:01:08;100699.56;;;20.66;30.42
19150;BME280;9707;49.158;8.632;2024-02-21T12:03:34;100680.50;;;20.68;31.09
19150;BME280;9707;49.158;8.632;2024-02-21T12:06:01;100683.84;;;20.71;31.23
19150;BME280;9707;49.158;8.632;2024-02-21T12:08:41;100679.31;;;20.72;30.54
19150;BME280;9707;49.158;8.632;2024-02-21T12:11:22;100670.09;;;20.74;31.26
19150;BME280;9707;49.158;8.632;2024-02-21T12:14:05;100665.41;;;20.76;31.06
19150;BME280;9707;49.158;8.632;2024-02-21T12:16:32;100659.78;;;20.79;31.08
19150;BME280;9707;49.158;8.632;2024-02-21T12:18:58;100655.97;;;20.82;30.94
19150;BME280;9707;49.158;8.632;2024-02-21T12:21:29;100649.44;;;20.84;30.75
19150;BME280;9707;49.158;8.632;2024-02-21T12:23:55;100646.38;;;20.89;31.03
19150;BME280;9707;49.158;8.632;2024-02-21T12:26:21;100642.50;;;20.93;30.92
19150;BME280;9707;49.158;8.632;2024-02-21T12:28:47;100638.81;;;20.94;30.89
19150;BME280;9707;49.158;8.632;2024-02-21T12:31:12;100623.28;;;20.96;30.55
19150;BME280;9707;49.158;8.632;2024-02-21T12:33:38;100616.91;;;20.97;30.34
19150;BME280;9707;49.158;8.632;2024-02-21T12:36:03;100612.34;;;20.97;30.52
19150;BME280;9707;49.158;8.632;2024-02-21T12:38:29;100625.75;;;20.99;30.39
19150;BME280;9707;49.158;8.632;2024-02-21T12:40:54;100603.22;;;20.98;29.97
19150;BME280;9707;49.158;8.632;2024-02-21T12:43:20;100604.22;;;20.97;30.30
19150;BME280;9707;49.158;8.632;2024-02-21T12:45:45;100596.97;;;20.98;30.83
19150;BME280;9707;49.158;8.632;2024-02-21T12:48:10;100598.69;;;20.99;30.24
19150;BME280;9707;49.158;8.632;2024-02-21T12:50:35;100593.16;;;21.00;30.24
19150;BME280;9707;49.158;8.632;2024-02-21T12:53:01;100592.28;;;21.00;29.64
19150;BME280;9707;49.158;8.632;2024-02-21T12:55:26;100580.44;;;21.01;30.17
19150;BME280;9707;49.158;8.632;2024-02-21T12:57:52;100577.63;;;21.02;30.28
19150;BME280;9707;49.158;8.632;2024-02-21T13:00:17;100570.28;;;21.04;30.03
19150;BME280;9707;49.158;8.632;2024-02-21T13:02:42;100569.38;;;21.04;29.58